Time;durP1;ratioP1;P1;durP2;ratioP2;P2;SDS_P1;SDS_P2;PMS_P1;PMS_P2;Temp;Humidity;BMP_temperature;BMP_pressure;BME280_temperature;BME280_humidity;BME280_pressure;Samples;Min_cycle;Max_cycle;Signal;HPM_P1;HPM_P2
2021/09/03 00:01:04;;;;;;;22.05;17.42;;;10.50;99.90;;;;;;5112059;28;20913;-84
2021/09/03 00:03:30;;;;;;;21.33;16.83;;;10.50;99.90;;;;;;5112458;28;20382;-80
2021/09/03 00:05:56;;;;;;;23.00;17.15;;;10.50;99.90;;;;;;5112101;28;20432;-83
2021/09/03 00:08:21;;;;;;;21.67;16.90;;;10.50;99.90;;;;;;5111773;28;20395;-81
2021/09/03 00:10:47;;;;;;;24.08;16.60;;;10.40;99.90;;;;;;5093750;28;20879;-82
2021/09/03 00:13:13;;;;;;;25.90;17.00;;;10.40;99.90;;;;;;5112082;28;20374;-83
2021/09/03 00:15:38;;;;;;;24.33;17.27;;;10.40;99.90;;;;;;5111353;28;20454;-82
2021/09/03 00:18:04;;;;;;;21.88;17.10;;;10.30;99.90;;;;;;5111929;28;20419;-83
2021/09/03 00:20:30;;;;;;;22.60;16.90;;;10.30;99.90;;;;;;5112002;28;20374;-82
2021/09/03 00:22:56;;;;;;;21.77;16.60;;;10.30;99.90;;;;;;5112060;28;20363;-80
2021/09/03 00:25:22;;;;;;;19.40;16.13;;;10.30;99.90;;;;;;5111876;28;20439;-81
2021/09/03 00:27:47;;;;;;;24.35;17.13;;;10.20;99.90;;;;;;5112107;28;20366;-83
2021/09/03 00:30:13;;;;;;;21.43;16.83;;;10.20;99.90;;;;;;5111583;28;20378;-83
2021/09/03 00:32:39;;;;;;;20.83;16.20;;;10.20;99.90;;;;;;5111693;28;20393;-81
2021/09/03 00:35:07;;;;;;;20.73;15.40;;;10.20;99.90;;;;;;5111625;28;20861;-82
2021/09/03 00:37:33;;;;;;;22.30;16.15;;;10.20;99.90;;;;;;5111402;28;20407;-81
2021/09/03 00:39:58;;;;;;;22.13;17.85;;;10.20;99.90;;;;;;5111448;28;20371;-81
2021/09/03 00:42:24;;;;;;;21.42;16.50;;;10.20;99.90;;;;;;5111410;28;20433;-81
2021/09/03 00:44:50;;;;;;;25.27;18.00;;;10.10;99.90;;;;;;5111374;28;20736;-81
2021/09/03 00:47:16;;;;;;;24.30;17.83;;;10.10;99.90;;;;;;5111456;28;20890;-81
2021/09/03 00:49:42;;;;;;;25.10;18.15;;;10.10;99.90;;;;;;5110970;28;20363;-82
2021/09/03 00:52:08;;;;;;;24.23;17.70;;;10.20;99.90;;;;;;5111544;28;20778;-83
2021/09/03 00:54:35;;;;;;;24.00;18.40;;;10.20;99.90;;;;;;5111464;28;20379;-80
2021/09/03 00:57:00;;;;;;;34.42;21.45;;;10.20;99.90;;;;;;5092630;28;20395;-81
2021/09/03 00:59:26;;;;;;;30.37;20.47;;;10.10;99.90;;;;;;5110961;28;20419;-80
2021/09/03 01:01:52;;;;;;;35.27;22.83;;;10.10;99.90;;;;;;5110982;28;20367;-81
2021/09/03 01:04:18;;;;;;;34.40;22.17;;;10.10;99.90;;;;;;5110997;28;20370;-82
2021/09/03 01:06:44;;;;;;;38.65;22.92;;;10.10;99.90;;;;;;5110976;28;20387;-82
2021/09/03 01:09:10;;;;;;;33.03;22.07;;;10.10;99.90;;;;;;5110775;28;20911;-83
2021/09/03 01:11:35;;;;;;;31.83;21.83;;;10.20;99.90;;;;;;5110970;28;20363;-83
2021/09/03 01:14:01;;;;;;;39.20;22.52;;;10.30;99.90;;;;;;5110740;28;20425;-84
2021/09/03 01:16:26;;;;;;;29.27;21.07;;;10.30;99.90;;;;;;5110381;28;20383;-83
2021/09/03 01:18:52;;;;;;;36.80;21.80;;;10.30;99.90;;;;;;5110640;28;20371;-82
2021/09/03 01:21:18;;;;;;;36.97;22.35;;;10.30;99.90;;;;;;5110860;28;20366;-84
2021/09/03 01:23:44;;;;;;;37.13;23.40;;;10.30;99.90;;;;;;5110221;28;20869;-80
2021/09/03 01:26:11;;;;;;;34.72;21.88;;;10.20;99.90;;;;;;5110436;28;20495;-83
2021/09/03 01:28:37;;;;;;;37.70;22.60;;;10.20;99.90;;;;;;5091810;28;20391;-83
2021/09/03 01:31:03;;;;;;;31.53;21.67;;;10.20;99.90;;;;;;5110540;28;20374;-81
2021/09/03 01:33:29;;;;;;;35.63;22.20;;;10.20;99.90;;;;;;5110562;28;20383;-82
2021/09/03 01:35:55;;;;;;;33.40;22.37;;;10.20;99.90;;;;;;5110638;28;20420;-82
2021/09/03 01:38:22;;;;;;;37.00;22.47;;;10.20;99.90;;;;;;5110074;28;20398;-82
2021/09/03 01:40:48;;;;;;;37.38;22.00;;;10.10;99.90;;;;;;5109988;28;20359;-81
2021/09/03 01:43:13;;;;;;;35.07;21.83;;;10.20;99.90;;;;;;5091871;28;20463;-81
2021/09/03 01:45:39;;;;;;;33.20;21.37;;;10.10;99.90;;;;;;5109711;28;20815;-83
2021/09/03 01:48:05;;;;;;;35.40;22.92;;;10.10;99.90;;;;;;5110326;28;20383;-82
2021/09/03 01:50:31;;;;;;;31.33;20.67;;;10.10;99.90;;;;;;5091508;28;20462;-82
2021/09/03 01:52:56;;;;;;;34.40;21.80;;;10.10;99.90;;;;;;5110324;28;20381;-81
2021/09/03 01:55:22;;;;;;;32.60;22.40;;;10.00;99.90;;;;;;5110034;28;20421;-81
2021/09/03 01:57:47;;;;;;;37.03;22.10;;;10.00;99.90;;;;;;5109776;28;20888;-83
2021/09/03 02:00:14;;;;;;;30.58;20.92;;;9.90;99.90;;;;;;5091764;28;20374;-81
2021/09/03 02:02:39;;;;;;;33.67;22.38;;;10.00;99.90;;;;;;5109852;28;20429;-82
2021/09/03 02:05:06;;;;;;;36.22;22.70;;;9.90;99.90;;;;;;5110000;28;20887;-83
2021/09/03 02:07:33;;;;;;;36.05;22.33;;;9.80;99.90;;;;;;5091182;28;20876;-84
2021/09/03 02:09:58;;;;;;;29.27;21.03;;;9.80;99.90;;;;;;5109423;28;20894;-82
2021/09/03 02:12:24;;;;;;;35.80;23.90;;;9.80;99.90;;;;;;5091482;28;21062;-83
2021/09/03 02:14:49;;;;;;;32.55;22.90;;;9.80;99.90;;;;;;5109422;28;20439;-82
2021/09/03 02:17:15;;;;;;;35.78;24.20;;;9.80;99.90;;;;;;5109742;28;20398;-82
2021/09/03 02:19:41;;;;;;;35.75;23.73;;;9.80;99.90;;;;;;5090851;28;20470;-80
2021/09/03 02:22:07;;;;;;;37.43;23.93;;;9.80;99.90;;;;;;5109557;28;20374;-81
2021/09/03 02:24:32;;;;;;;40.20;25.63;;;9.90;99.90;;;;;;5109421;28;20373;-81
2021/09/03 02:26:58;;;;;;;35.30;23.30;;;10.00;99.90;;;;;;5109549;28;20390;-83
2021/09/03 02:29:24;;;;;;;32.85;22.83;;;10.00;99.90;;;;;;5108683;28;20383;-81
2021/09/03 02:31:49;;;;;;;41.60;25.92;;;10.10;99.90;;;;;;5109392;28;20383;-81
2021/09/03 02:34:15;;;;;;;44.00;25.97;;;10.10;99.90;;;;;;5109503;28;20432;-82
2021/09/03 02:36:40;;;;;;;37.45;24.15;;;10.00;99.90;;;;;;5109221;28;20875;-82
2021/09/03 02:39:06;;;;;;;34.05;23.27;;;10.10;99.90;;;;;;5109441;28;20743;-81
2021/09/03 02:41:32;;;;;;;38.47;23.73;;;10.10;99.90;;;;;;5109148;28;20370;-80
2021/09/03 02:43:58;;;;;;;40.63;24.40;;;10.10;99.90;;;;;;5090713;28;20385;-81
2021/09/03 02:46:24;;;;;;;33.20;22.15;;;10.10;99.90;;;;;;5108891;28;20390;-81
2021/09/03 02:48:50;;;;;;;32.38;22.35;;;10.10;99.90;;;;;;5109142;28;20434;-83
2021/09/03 02:51:16;;;;;;;40.25;24.67;;;10.10;99.90;;;;;;5109165;28;20420;-83
2021/09/03 02:53:41;;;;;;;60.95;27.83;;;10.00;99.90;;;;;;5108905;28;20391;-83
2021/09/03 02:56:07;;;;;;;42.13;24.97;;;10.00;99.90;;;;;;5108932;28;20375;-84
2021/09/03 02:58:33;;;;;;;46.30;25.70;;;10.00;99.90;;;;;;5108856;28;20477;-82
2021/09/03 03:00:58;;;;;;;65.53;28.88;;;9.90;99.90;;;;;;5090733;28;20891;-83
2021/09/03 03:03:24;;;;;;;37.95;24.38;;;9.90;99.90;;;;;;5108727;28;20836;-82
2021/09/03 03:05:50;;;;;;;28.10;21.90;;;9.90;99.90;;;;;;5090731;28;20390;-80
2021/09/03 03:08:15;;;;;;;32.72;22.45;;;9.90;99.90;;;;;;5108714;28;20462;-81
2021/09/03 03:10:41;;;;;;;28.48;21.50;;;9.90;99.90;;;;;;5108933;28;20375;-80
2021/09/03 03:13:20;;;;;;;28.70;21.23;;;10.00;99.90;;;;;;5108859;28;20371;-82
2021/09/03 03:15:46;;;;;;;29.92;22.10;;;9.90;99.90;;;;;;5109141;28;20918;-82
2021/09/03 03:18:12;;;;;;;30.88;21.67;;;9.90;99.90;;;;;;5090701;28;20394;-83
2021/09/03 03:20:37;;;;;;;32.23;21.63;;;9.80;99.90;;;;;;5111877;28;20878;-83
2021/09/03 03:23:03;;;;;;;29.47;20.83;;;9.80;99.90;;;;;;5112808;28;20373;-84
2021/09/03 03:25:28;;;;;;;33.40;22.05;;;9.80;99.90;;;;;;5113321;28;20371;-83
2021/09/03 03:27:54;;;;;;;33.40;23.03;;;9.80;99.90;;;;;;5094380;28;20456;-81
2021/09/03 03:30:19;;;;;;;39.53;23.43;;;9.70;99.90;;;;;;5112970;28;20374;-83
2021/09/03 03:32:46;;;;;;;32.28;22.33;;;9.70;99.90;;;;;;5112861;28;20874;-83
2021/09/03 03:35:11;;;;;;;25.38;20.13;;;9.70;99.90;;;;;;5112811;28;20883;-81
2021/09/03 03:37:37;;;;;;;30.08;21.60;;;9.70;99.90;;;;;;5112519;28;20394;-82
2021/09/03 03:40:03;;;;;;;30.47;21.90;;;9.70;99.90;;;;;;5112375;28;20420;-83
2021/09/03 03:42:29;;;;;;;29.95;20.83;;;9.70;99.90;;;;;;5093741;28;20375;-83
2021/09/03 03:44:54;;;;;;;35.30;23.23;;;9.70;99.90;;;;;;5112711;28;20386;-81
2021/09/03 03:47:20;;;;;;;30.20;20.87;;;9.60;99.90;;;;;;5112423;28;20414;-81
2021/09/03 03:49:45;;;;;;;30.38;21.48;;;9.60;99.90;;;;;;5112431;28;20423;-83
2021/09/03 03:52:11;;;;;;;37.08;22.98;;;9.60;99.90;;;;;;5112440;28;20421;-81
2021/09/03 03:54:36;;;;;;;34.13;22.50;;;9.70;99.90;;;;;;5093829;28;20383;-81
2021/09/03 03:57:02;;;;;;;24.15;19.20;;;9.70;99.90;;;;;;5112411;28;20387;-81
2021/09/03 03:59:28;;;;;;;45.83;23.38;;;9.70;99.90;;;;;;5111995;28;20864;-83
2021/09/03 04:01:54;;;;;;;27.35;19.92;;;9.70;99.90;;;;;;5112330;28;20736;-82
2021/09/03 04:04:19;;;;;;;41.35;24.13;;;9.70;99.90;;;;;;5094095;28;20375;-83
2021/09/03 04:06:45;;;;;;;32.60;21.17;;;9.70;99.90;;;;;;5112296;28;20845;-80
2021/09/03 04:09:11;;;;;;;37.20;22.65;;;9.60;99.90;;;;;;5112192;28;20371;-80
2021/09/03 04:11:36;;;;;;;28.70;21.08;;;9.60;99.90;;;;;;5112158;28;20363;-80
2021/09/03 04:14:02;;;;;;;28.13;20.93;;;9.60;99.90;;;;;;5112080;28;20393;-80
2021/09/03 04:16:27;;;;;;;22.43;18.57;;;9.60;99.90;;;;;;5111772;28;20458;-82
2021/09/03 04:18:53;;;;;;;26.48;19.60;;;9.70;99.90;;;;;;5112187;28;20440;-82
2021/09/03 04:21:18;;;;;;;26.83;20.50;;;9.70;99.90;;;;;;5093484;28;20374;-80
2021/09/03 04:23:44;;;;;;;26.10;19.37;;;9.70;99.90;;;;;;5111849;28;20443;-81
2021/09/03 04:26:10;;;;;;;30.30;20.45;;;9.70;99.90;;;;;;5111852;28;20378;-80
2021/09/03 04:28:35;;;;;;;24.17;18.27;;;9.70;99.90;;;;;;5111689;28;20371;-81
2021/09/03 04:31:01;;;;;;;28.07;19.37;;;9.70;99.90;;;;;;5110911;28;20381;-81
2021/09/03 04:33:26;;;;;;;27.52;20.58;;;9.80;99.90;;;;;;5111619;28;20393;-80
2021/09/03 04:35:52;;;;;;;19.60;16.77;;;9.80;99.90;;;;;;5112092;28;20370;-81
2021/09/03 04:38:17;;;;;;;28.10;18.90;;;9.90;99.90;;;;;;5111626;28;20401;-82
2021/09/03 04:40:44;;;;;;;24.05;18.15;;;9.90;99.90;;;;;;5111426;28;20406;-80
2021/09/03 04:43:09;;;;;;;26.77;19.75;;;9.90;99.90;;;;;;5092998;28;20655;-82
2021/09/03 04:45:35;;;;;;;26.58;19.10;;;10.00;99.90;;;;;;5110880;28;20792;-81
2021/09/03 04:48:01;;;;;;;31.02;19.98;;;10.00;99.90;;;;;;5111762;28;20457;-81
2021/09/03 04:50:26;;;;;;;30.67;20.07;;;10.00;99.90;;;;;;5111270;28;20728;-80
2021/09/03 04:52:52;;;;;;;23.97;17.93;;;10.00;99.90;;;;;;5111645;28;20494;-81
2021/09/03 04:55:17;;;;;;;26.27;18.88;;;10.00;99.90;;;;;;5111206;28;20374;-81
2021/09/03 04:57:44;;;;;;;24.97;18.30;;;10.00;99.90;;;;;;5110918;28;20510;-80
2021/09/03 05:00:12;;;;;;;18.15;16.23;;;10.10;99.90;;;;;;5092787;28;20379;-79
2021/09/03 05:02:38;;;;;;;23.00;17.70;;;10.10;99.90;;;;;;5111103;28;20864;-80
2021/09/03 05:05:05;;;;;;;21.98;17.00;;;10.20;99.90;;;;;;5111271;28;20381;-79
2021/09/03 05:07:30;;;;;;;20.42;16.42;;;10.20;99.90;;;;;;5111084;28;20794;-81
2021/09/03 05:09:56;;;;;;;18.00;16.10;;;10.30;99.90;;;;;;5091036;28;20378;-80
2021/09/03 05:12:21;;;;;;;19.10;16.30;;;10.40;99.90;;;;;;5111634;27;20488;-80
2021/09/03 05:14:47;;;;;;;17.60;15.80;;;10.50;99.90;;;;;;5103347;28;20374;-81
2021/09/03 05:17:12;;;;;;;19.37;16.83;;;10.60;99.90;;;;;;5110349;28;20444;-81
2021/09/03 05:19:38;;;;;;;22.73;18.20;;;10.70;99.90;;;;;;5092229;28;20436;-79
2021/09/03 05:22:04;;;;;;;24.05;17.17;;;10.70;99.90;;;;;;5110829;28;20377;-80
2021/09/03 05:24:29;;;;;;;17.93;16.13;;;10.80;99.90;;;;;;5109989;28;20433;-81
2021/09/03 05:26:55;;;;;;;18.53;15.70;;;10.90;99.90;;;;;;5110139;28;20713;-79
2021/09/03 05:29:20;;;;;;;19.88;16.75;;;11.00;99.90;;;;;;5091667;28;20458;-80
2021/09/03 05:31:46;;;;;;;17.53;15.63;;;11.10;99.90;;;;;;5110408;28;20840;-81
2021/09/03 05:34:11;;;;;;;18.83;15.93;;;11.30;99.90;;;;;;5109977;28;20488;-82
2021/09/03 05:36:37;;;;;;;18.13;16.23;;;11.40;99.90;;;;;;5109788;28;20410;-82
2021/09/03 05:39:03;;;;;;;16.23;14.63;;;11.40;99.90;;;;;;5109650;28;20378;-82
2021/09/03 05:41:29;;;;;;;19.95;15.38;;;11.60;99.90;;;;;;5109628;28;20371;-82
2021/09/03 05:43:54;;;;;;;17.90;16.10;;;11.80;99.90;;;;;;5091568;28;20383;-81
2021/09/03 05:46:20;;;;;;;16.30;14.60;;;11.90;99.90;;;;;;5109855;28;20443;-81
2021/09/03 05:48:45;;;;;;;20.13;15.50;;;12.00;99.90;;;;;;5110017;28;20860;-80
2021/09/03 05:51:11;;;;;;;19.75;16.60;;;12.10;99.90;;;;;;5110015;28;20709;-82
2021/09/03 05:53:36;;;;;;;19.30;17.13;;;12.20;99.90;;;;;;5109435;28;20378;-80
2021/09/03 05:56:02;;;;;;;21.73;17.33;;;12.30;99.90;;;;;;5091353;28;20454;-81
2021/09/03 05:58:28;;;;;;;18.60;16.70;;;12.30;99.90;;;;;;5091206;28;20493;-80
2021/09/03 06:00:54;;;;;;;20.10;17.00;;;12.40;99.90;;;;;;5110110;28;20382;-81
2021/09/03 06:03:19;;;;;;;18.60;16.47;;;12.60;99.90;;;;;;5091407;28;20370;-83
2021/09/03 06:05:45;;;;;;;21.27;18.50;;;12.60;99.90;;;;;;5109652;28;20876;-81
2021/09/03 06:08:11;;;;;;;20.80;18.60;;;12.70;99.90;;;;;;5109401;28;20378;-83
2021/09/03 06:10:36;;;;;;;20.27;18.27;;;12.80;99.90;;;;;;5108940;28;20367;-82
2021/09/03 06:13:02;;;;;;;18.30;16.42;;;12.90;99.90;;;;;;5109411;28;20373;-80
2021/09/03 06:15:27;;;;;;;20.80;17.50;;;13.10;99.90;;;;;;5109468;28;20371;-81
2021/09/03 06:17:53;;;;;;;22.10;19.70;;;13.20;99.90;;;;;;5109350;28;20493;-81
2021/09/03 06:20:19;;;;;;;21.20;18.38;;;13.30;99.90;;;;;;5091068;28;20860;-81
2021/09/03 06:22:45;;;;;;;19.40;17.03;;;13.40;99.90;;;;;;5108768;28;20736;-82
2021/09/03 06:42:03;;;;;;;23.45;20.08;;;14.70;99.90;;;;;;5088819;28;20410;-82
2021/09/03 06:44:29;;;;;;;21.77;18.23;;;14.90;99.90;;;;;;5088162;28;20455;-80
2021/09/03 06:46:54;;;;;;;21.77;17.40;;;15.10;99.90;;;;;;5087813;28;20479;-82
2021/09/03 06:49:20;;;;;;;22.13;19.65;;;15.30;99.90;;;;;;5088011;28;20438;-82
2021/09/03 06:51:46;;;;;;;25.80;20.77;;;15.50;99.90;;;;;;5077659;28;20382;-80
2021/09/03 06:54:11;;;;;;;21.77;19.43;;;15.70;99.90;;;;;;5108186;28;20374;-83
2021/09/03 06:56:37;;;;;;;23.52;20.42;;;15.90;99.90;;;;;;5107869;28;20428;-81
2021/09/03 06:59:03;;;;;;;23.67;19.65;;;16.10;99.90;;;;;;5108671;28;20398;-82
2021/09/03 07:01:29;;;;;;;24.23;20.40;;;16.40;99.90;;;;;;5108714;28;20379;-82
2021/09/03 07:03:55;;;;;;;25.00;19.23;;;16.50;99.90;;;;;;5108952;28;20363;-79
2021/09/03 07:06:21;;;;;;;25.03;20.13;;;16.60;99.90;;;;;;5107773;28;20415;-82
2021/09/03 07:08:46;;;;;;;26.38;20.55;;;16.90;99.90;;;;;;5110872;28;20395;-79
2021/09/03 07:11:12;;;;;;;27.93;19.70;;;17.10;99.90;;;;;;5109870;28;20375;-82
2021/09/03 07:13:37;;;;;;;22.52;19.15;;;17.20;99.90;;;;;;5092485;28;20797;-81
2021/09/03 07:16:03;;;;;;;21.80;18.90;;;17.30;99.90;;;;;;5091721;28;20458;-80
2021/09/03 07:18:29;;;;;;;25.63;21.17;;;17.40;99.90;;;;;;5109472;28;20437;-81
2021/09/03 07:20:55;;;;;;;26.80;21.27;;;17.40;99.90;;;;;;5110320;28;20403;-80
2021/09/03 07:23:20;;;;;;;25.65;20.95;;;17.50;99.90;;;;;;5109398;28;20359;-80
2021/09/03 07:25:46;;;;;;;23.53;19.90;;;17.70;99.90;;;;;;5109749;28;20367;-80
2021/09/03 07:28:12;;;;;;;23.05;19.92;;;17.90;99.90;;;;;;5109292;28;20374;-81
2021/09/03 07:30:37;;;;;;;23.43;20.33;;;18.00;99.90;;;;;;5091023;28;20868;-80
2021/09/03 07:33:03;;;;;;;22.27;19.52;;;18.20;99.90;;;;;;5109257;28;20367;-80
2021/09/03 07:35:29;;;;;;;28.33;21.13;;;18.30;99.90;;;;;;5110087;28;20367;-81
2021/09/03 07:37:56;;;;;;;26.87;21.17;;;18.20;99.90;;;;;;5108457;28;20399;-80
2021/09/03 07:40:22;;;;;;;27.23;19.88;;;18.30;99.90;;;;;;5108778;28;20370;-81
2021/09/03 07:42:47;;;;;;;23.58;19.98;;;18.50;99.90;;;;;;5123596;27;20861;-81
2021/09/03 07:45:13;;;;;;;23.13;20.63;;;18.80;99.90;;;;;;5110976;28;20373;-80
2021/09/03 07:47:39;;;;;;;26.33;20.05;;;19.00;99.90;;;;;;5127656;27;21198;-82
2021/09/03 07:50:05;;;;;;;25.00;21.10;;;18.90;99.90;;;;;;5129089;27;20374;-79
2021/09/03 07:52:30;;;;;;;27.38;20.45;;;19.10;99.90;;;;;;5128945;28;20885;-80
2021/09/03 07:54:56;;;;;;;22.97;19.40;;;19.20;99.90;;;;;;5129320;28;20373;-80
2021/09/03 07:57:22;;;;;;;23.23;19.37;;;19.40;99.90;;;;;;5129096;28;20392;-78
2021/09/03 07:59:47;;;;;;;24.02;18.95;;;19.40;99.90;;;;;;5128802;27;20365;-80
2021/09/03 08:02:13;;;;;;;25.67;20.13;;;19.40;99.90;;;;;;5090062;28;20437;-79
2021/09/03 08:04:38;;;;;;;26.02;20.17;;;19.20;99.90;;;;;;5108326;28;20371;-82
2021/09/03 08:07:04;;;;;;;27.93;21.43;;;19.10;99.90;;;;;;5110670;28;20371;-82
2021/09/03 08:09:29;;;;;;;25.90;20.20;;;19.00;99.90;;;;;;5112736;28;20379;-80
2021/09/03 08:11:55;;;;;;;27.83;20.47;;;19.00;99.90;;;;;;5112310;28;20860;-81
2021/09/03 08:14:21;;;;;;;23.35;20.85;;;19.20;99.90;;;;;;5112596;28;20733;-82
2021/09/03 08:16:46;;;;;;;26.30;20.80;;;19.30;99.90;;;;;;5111963;28;20434;-82
2021/09/03 08:19:12;;;;;;;25.52;19.50;;;19.50;99.90;;;;;;5112322;28;20363;-83
2021/09/03 08:21:37;;;;;;;26.10;19.53;;;19.70;99.90;;;;;;5112456;28;20457;-83
2021/09/03 08:24:04;;;;;;;26.80;20.30;;;20.00;99.90;;;;;;5093781;28;20375;-80
2021/09/03 08:26:29;;;;;;;22.60;19.10;;;20.10;99.90;;;;;;5111652;28;20785;-82
2021/09/03 08:28:55;;;;;;;25.43;20.00;;;20.20;99.90;;;;;;5105548;27;20375;-82
2021/09/03 08:31:21;;;;;;;27.60;20.55;;;20.30;99.90;;;;;;5121427;27;20487;-82
2021/09/03 08:33:47;;;;;;;25.75;20.10;;;20.30;99.90;;;;;;5109061;27;20815;-83
2021/09/03 08:36:12;;;;;;;24.90;19.43;;;20.30;99.90;;;;;;5110251;27;20455;-81
2021/09/03 08:38:38;;;;;;;27.63;20.08;;;20.30;99.90;;;;;;5110026;27;20403;-83
2021/09/03 08:41:04;;;;;;;24.08;19.85;;;20.30;99.90;;;;;;5089764;27;20428;-83
2021/09/03 08:43:30;;;;;;;25.30;20.83;;;20.40;99.90;;;;;;5110082;28;20375;-82
2021/09/03 08:45:55;;;;;;;26.02;19.77;;;20.30;99.90;;;;;;5110455;28;20420;-85
2021/09/03 08:48:23;;;;;;;25.13;19.80;;;20.40;99.90;;;;;;5110545;28;20389;-82
2021/09/03 08:50:51;;;;;;;24.05;18.63;;;20.50;99.90;;;;;;5093995;28;20394;-84
2021/09/03 08:53:20;;;;;;;22.05;17.77;;;20.70;99.90;;;;;;5091994;27;20384;-82
2021/09/03 08:55:50;;;;;;;23.85;18.38;;;20.80;99.90;;;;;;5105656;27;20386;-83
2021/09/03 08:58:16;;;;;;;24.65;17.52;;;20.80;99.90;;;;;;5108709;28;20430;-82
2021/09/03 09:00:43;;;;;;;27.20;18.30;;;20.70;99.90;;;;;;5092036;28;20422;-83
2021/09/03 09:03:13;;;;;;;23.20;17.55;;;20.60;99.90;;;;;;5092102;28;20432;-80
2021/09/03 09:05:59;;;;;;;24.60;17.70;;;20.60;99.90;;;;;;5110645;28;20386;-79
2021/09/03 09:08:27;;;;;;;25.70;16.60;;;20.70;99.90;;;;;;5091994;28;20390;-83
2021/09/03 09:10:54;;;;;;;25.15;17.05;;;20.80;99.90;;;;;;5091600;28;20763;-82
2021/09/03 09:13:25;;;;;;;22.65;17.50;;;20.90;99.90;;;;;;5108786;28;20872;-83
2021/09/03 09:16:16;;;;;;;23.95;16.20;;;20.70;99.90;;;;;;5109921;28;20369;-80
2021/09/03 09:18:49;;;;;;;25.42;16.40;;;20.50;99.90;;;;;;5109063;28;20390;-82
2021/09/03 09:21:19;;;;;;;26.85;16.83;;;20.50;99.90;;;;;;5091813;28;20386;-82
2021/09/03 09:24:02;;;;;;;23.58;16.20;;;20.70;99.90;;;;;;5107319;28;20375;-82
2021/09/03 09:26:46;;;;;;;24.92;15.82;;;20.90;99.90;;;;;;5104224;28;20462;-81
2021/09/03 09:29:20;;;;;;;26.05;15.82;;;20.80;99.90;;;;;;5107405;28;20370;-82
2021/09/03 09:31:51;;;;;;;20.35;14.43;;;21.00;99.90;;;;;;5106824;28;20429;-80
2021/09/03 09:34:22;;;;;;;24.30;15.68;;;21.20;99.90;;;;;;5109852;28;20424;-82
2021/09/03 09:36:53;;;;;;;21.70;15.20;;;21.30;99.90;;;;;;5107249;28;20443;-83
2021/09/03 09:39:24;;;;;;;23.02;15.38;;;21.30;99.90;;;;;;5075087;28;20386;-81
2021/09/03 09:41:58;;;;;;;24.17;15.57;;;21.40;99.90;;;;;;5106239;28;20371;-83
2021/09/03 09:44:32;;;;;;;25.33;14.97;;;21.50;99.90;;;;;;5108778;28;20431;-84
2021/09/03 09:47:12;;;;;;;18.77;14.20;;;21.60;99.90;;;;;;5090449;28;20386;-82
2021/09/03 09:49:37;;;;;;;23.60;14.82;;;21.70;99.90;;;;;;5107619;28;20774;-81
2021/09/03 09:52:04;;;;;;;18.03;13.40;;;21.70;99.90;;;;;;5108957;28;20422;-82
2021/09/03 09:54:30;;;;;;;20.27;14.07;;;21.90;99.90;;;;;;5109286;28;20457;-80
2021/09/03 09:57:04;;;;;;;20.23;13.70;;;22.00;99.90;;;;;;5109482;28;20458;-79
2021/09/03 09:59:32;;;;;;;19.58;13.82;;;22.20;99.90;;;;;;5108671;28;20386;-81
2021/09/03 10:02:03;;;;;;;19.25;13.70;;;22.30;99.90;;;;;;5091126;28;20820;-81
2021/09/03 10:04:31;;;;;;;22.63;14.65;;;22.40;99.90;;;;;;5109206;28;20435;-82
2021/09/03 10:07:00;;;;;;;18.05;12.73;;;22.60;99.90;;;;;;5108742;27;20480;-81
2021/09/03 10:09:28;;;;;;;15.30;11.40;;;22.60;99.90;;;;;;5108854;28;20453;-83
2021/09/03 10:11:55;;;;;;;17.77;12.15;;;22.60;99.90;;;;;;5084743;28;20378;-82
2021/09/03 10:14:25;;;;;;;18.33;12.57;;;22.60;99.90;;;;;;5090157;28;20930;-83
2021/09/03 10:16:52;;;;;;;15.88;11.88;;;22.60;99.90;;;;;;5108084;28;20390;-81
2021/09/03 10:19:28;;;;;;;15.70;11.80;;;22.60;99.90;;;;;;5109272;28;20374;-84
2021/09/03 10:22:05;;;;;;;15.52;11.80;;;22.50;99.90;;;;;;5104373;28;20471;-82
2021/09/03 10:24:31;;;;;;;13.80;11.13;;;22.60;99.90;;;;;;5107721;28;20745;-81
2021/09/03 10:26:59;;;;;;;16.20;12.32;;;22.70;99.90;;;;;;5090189;28;20394;-82
2021/09/03 10:29:33;;;;;;;19.85;12.98;;;22.80;99.90;;;;;;5106785;28;20374;-80
2021/09/03 10:32:08;;;;;;;18.55;12.13;;;22.90;99.90;;;;;;5106912;28;20383;-79
2021/09/03 10:37:06;;;;;;;15.57;11.00;;;22.90;99.90;;;;;;5109260;28;20402;-84
2021/09/03 10:39:50;;;;;;;15.23;10.05;;;22.80;99.90;;;;;;5108388;28;20390;-82
2021/09/03 10:42:34;;;;;;;13.65;10.27;;;22.80;99.90;;;;;;5088472;28;20379;-82
2021/09/03 10:45:03;;;;;;;15.00;10.45;;;23.00;99.90;;;;;;5105449;28;20370;-84
2021/09/03 10:47:32;;;;;;;14.87;9.73;;;23.00;99.90;;;;;;5090165;28;20437;-83
2021/09/03 10:50:18;;;;;;;13.80;9.63;;;23.10;99.90;;;;;;5108200;28;20474;-82
2021/09/03 10:53:02;;;;;;;14.45;10.48;;;23.10;99.90;;;;;;5107715;28;20883;-82
2021/09/03 10:55:46;;;;;;;16.17;9.80;;;23.20;99.90;;;;;;5108712;28;20826;-84
2021/09/03 10:58:37;;;;;;;12.68;9.02;;;23.10;99.90;;;;;;5109358;28;20447;-84
2021/09/03 11:01:11;;;;;;;13.85;8.93;;;23.20;99.90;;;;;;5109376;28;20438;-81
2021/09/03 11:03:40;;;;;;;13.30;8.95;;;23.10;99.90;;;;;;5108897;28;20397;-81
2021/09/03 11:06:06;;;;;;;13.57;9.33;;;23.10;99.90;;;;;;5091153;28;20753;-81
2021/09/03 11:08:44;;;;;;;14.77;8.75;;;23.20;99.90;;;;;;5109329;28;20367;-80
2021/09/03 11:11:30;;;;;;;14.17;9.30;;;23.30;99.90;;;;;;5109403;28;20378;-80
2021/09/03 11:14:05;;;;;;;15.05;10.07;;;23.30;99.90;;;;;;5108578;28;20367;-83
2021/09/03 11:16:44;;;;;;;13.75;9.50;;;23.20;99.90;;;;;;5102788;28;20391;-81
2021/09/03 11:19:19;;;;;;;14.73;9.63;;;23.30;99.90;;;;;;5088170;28;20410;-83
2021/09/03 11:21:48;;;;;;;11.63;8.40;;;23.30;99.90;;;;;;5109128;28;21055;-81
2021/09/03 11:24:16;;;;;;;9.95;8.13;;;23.30;99.90;;;;;;5107876;28;20802;-80
2021/09/03 11:26:43;;;;;;;16.35;8.48;;;23.30;99.90;;;;;;5108461;28;20367;-83
2021/09/03 11:29:19;;;;;;;12.25;8.55;;;23.30;99.90;;;;;;5089696;28;20944;-84
2021/09/03 11:32:05;;;;;;;11.40;8.45;;;23.20;99.90;;;;;;5090393;28;20736;-84
2021/09/03 11:34:47;;;;;;;10.93;8.15;;;23.20;99.90;;;;;;5090596;28;20391;-82
2021/09/03 11:37:33;;;;;;;12.57;8.20;;;23.30;99.90;;;;;;5090389;28;20485;-81
2021/09/03 11:40:22;;;;;;;12.60;8.57;;;23.20;99.90;;;;;;5109051;28;20826;-82
2021/09/03 11:42:52;;;;;;;14.10;8.80;;;23.20;99.90;;;;;;5112369;28;20431;-82
2021/09/03 11:45:21;;;;;;;13.25;9.20;;;23.00;99.90;;;;;;5112966;28;20449;-81
2021/09/03 11:47:53;;;;;;;13.27;8.30;;;23.00;99.90;;;;;;5112510;28;20378;-81
2021/09/03 11:50:40;;;;;;;10.02;8.07;;;23.00;99.90;;;;;;5112876;28;20382;-83
2021/09/03 11:53:08;;;;;;;13.63;7.97;;;23.10;99.90;;;;;;5112525;28;20521;-82
2021/09/03 11:55:39;;;;;;;10.77;8.02;;;23.10;99.90;;;;;;5112725;28;20461;-84
2021/09/03 11:58:09;;;;;;;12.05;8.00;;;23.30;99.90;;;;;;5112073;28;20402;-84
2021/09/03 12:00:35;;;;;;;11.80;7.93;;;23.20;99.90;;;;;;5093157;28;20438;-81
2021/09/03 12:03:07;;;;;;;12.47;7.87;;;23.10;99.90;;;;;;5111134;28;20876;-81
2021/09/03 12:05:33;;;;;;;14.38;8.02;;;23.20;99.90;;;;;;5107909;27;20419;-81
2021/09/03 12:08:03;;;;;;;12.05;7.70;;;23.20;99.90;;;;;;5105696;28;20487;-84
2021/09/03 12:10:52;;;;;;;11.32;7.88;;;23.20;99.90;;;;;;5106149;28;20449;-84
2021/09/03 12:13:37;;;;;;;10.98;7.82;;;23.20;99.90;;;;;;5092183;28;20732;-81
2021/09/03 12:16:05;;;;;;;11.80;7.68;;;23.30;99.90;;;;;;5092327;28;20418;-85
2021/09/03 12:18:39;;;;;;;9.68;7.47;;;23.30;99.90;;;;;;5089812;28;20402;-83
2021/09/03 12:21:12;;;;;;;10.85;7.88;;;23.30;99.90;;;;;;5111211;28;20379;-84
2021/09/03 12:23:41;;;;;;;13.73;8.55;;;23.40;99.90;;;;;;5090301;28;20386;-83
2021/09/03 12:26:17;;;;;;;10.93;8.43;;;23.50;99.90;;;;;;5111602;28;20372;-80
2021/09/03 12:28:44;;;;;;;10.65;7.72;;;23.50;99.90;;;;;;5109600;28;20380;-81
2021/09/03 12:31:15;;;;;;;15.17;7.83;;;23.50;99.90;;;;;;5111094;28;20600;-83
2021/09/03 12:33:52;;;;;;;12.55;8.02;;;23.50;99.90;;;;;;5110613;28;20385;-81
2021/09/03 12:36:21;;;;;;;11.73;8.20;;;23.50;99.90;;;;;;5109236;28;20379;-84
2021/09/03 12:38:51;;;;;;;11.45;7.65;;;23.50;99.90;;;;;;5092384;28;20411;-84
2021/09/03 12:41:19;;;;;;;10.10;7.90;;;23.50;99.90;;;;;;5110785;28;20373;-80
2021/09/03 12:43:57;;;;;;;11.05;7.50;;;23.50;99.90;;;;;;5110770;28;21219;-84
2021/09/03 12:46:24;;;;;;;11.90;7.63;;;23.50;99.90;;;;;;5117085;27;20891;-85
2021/09/03 12:49:06;;;;;;;9.13;7.20;;;23.60;99.90;;;;;;5116358;27;20375;-82
2021/09/03 12:51:34;;;;;;;11.27;7.53;;;23.70;99.90;;;;;;5115254;27;20374;-83
2021/09/03 12:54:01;;;;;;;10.57;7.50;;;23.70;99.90;;;;;;5115570;27;20375;-84